Time,TemperatureF,DewpointF,PressureIn,WindDirection,WindDirectionDegrees,WindSpeedMPH,WindSpeedGustMPH,Humidity,HourlyPrecipIn,Conditions,Clouds,dailyrainin,SolarRadiationWatts/m^2,SoftwareType,DateUTC
2013-03-15 00:12:00,60.0,36.0,-100.00,SSE,162,3.0,6.0,41,0.00,,,0.00,0.000000,,2013-03-15 07:12:00,
2013-03-15 00:22:00,60.0,36.0,-100.00,SSE,162,3.0,6.0,41,0.00,,,0.00,0.000000,,2013-03-15 07:22:00,
2013-03-15 01:12:00,61.0,34.0,-100.00,SSE,152,2.0,5.0,36,-99.99,,,0.00,0.000000,,2013-03-15 08:12:00,
2013-03-15 01:22:00,61.0,34.0,-100.00,SSE,152,2.0,5.0,36,-99.99,,,0.00,0.000000,,2013-03-15 08:22:00,
2013-03-15 01:32:00,61.0,34.0,-100.00,SSE,152,2.0,5.0,36,-99.99,,,0.00,0.000000,,2013-03-15 08:32:00,
2013-03-15 01:42:00,61.0,34.0,-100.00,SSE,152,2.0,5.0,36,-99.99,,,0.00,0.000000,,2013-03-15 08:42:00,
2013-03-15 02:12:00,53.0,35.0,-100.00,NW,309,4.0,5.0,50,0.00,,,0.00,0.000000,,2013-03-15 09:12:00,
2013-03-15 02:22:00,53.0,35.0,-100.00,NW,309,4.0,5.0,50,0.00,,,0.00,0.000000,,2013-03-15 09:22:00,
2013-03-15 03:12:00,53.0,40.0,-100.00,NW,312,2.0,5.0,62,-99.99,,,0.00,0.000000,,2013-03-15 10:12:00,
2013-03-15 03:23:00,53.0,40.0,-100.00,NW,312,2.0,5.0,62,-99.99,,,0.00,0.000000,,2013-03-15 10:23:00,
2013-03-15 04:12:00,51.0,37.0,-100.00,East,94,2.0,4.0,58,-99.99,,,0.00,0.000000,,2013-03-15 11:12:00,
2013-03-15 04:22:00,51.0,37.0,-100.00,East,94,2.0,4.0,58,-99.99,,,0.00,0.000000,,2013-03-15 11:22:00,
2013-03-15 05:12:00,47.0,35.0,-100.00,NW,309,4.0,5.0,64,-99.99,,,0.00,0.000000,,2013-03-15 12:12:00,
2013-03-15 05:22:00,47.0,35.0,-100.00,NW,309,4.0,5.0,64,-99.99,,,0.00,0.000000,,2013-03-15 12:22:00,
2013-03-15 06:12:00,51.0,39.0,-100.00,North,359,5.0,6.0,64,-99.99,,,0.00,0.000000,,2013-03-15 13:12:00,
2013-03-15 07:12:00,49.0,39.0,-100.00,SSW,200,2.0,6.0,67,0.00,,,0.00,1.000000,,2013-03-15 14:12:00,
2013-03-15 07:22:00,49.0,39.0,-100.00,SSW,200,2.0,6.0,67,0.00,,,0.00,1.000000,,2013-03-15 14:22:00,
2013-03-15 08:12:00,54.0,39.0,-100.00,East,99,2.0,4.0,57,-99.99,,,0.00,66.000000,,2013-03-15 15:12:00,
2013-03-15 08:22:00,54.0,39.0,-100.00,East,99,2.0,4.0,57,-99.99,,,0.00,66.000000,,2013-03-15 15:22:00,
2013-03-15 10:12:00,75.0,35.0,-100.00,WNW,301,3.0,5.0,23,-99.99,,,0.00,585.000000,,2013-03-15 17:12:00,
2013-03-15 10:22:00,75.0,35.0,-100.00,WNW,301,3.0,5.0,23,-99.99,,,0.00,585.000000,,2013-03-15 17:22:00,
2013-03-15 10:32:00,75.0,35.0,-100.00,WNW,301,3.0,5.0,23,-99.99,,,0.00,585.000000,,2013-03-15 17:32:00,
2013-03-15 10:42:00,75.0,35.0,-100.00,WNW,301,3.0,5.0,23,-99.99,,,0.00,585.000000,,2013-03-15 17:42:00,
2013-03-15 11:12:00,80.0,35.0,-100.00,North,7,5.0,8.0,20,0.00,,,0.00,793.000000,,2013-03-15 18:12:00,
2013-03-15 11:22:00,80.0,35.0,-100.00,North,7,5.0,8.0,20,0.00,,,0.00,793.000000,,2013-03-15 18:22:00,
2013-03-15 11:32:00,80.0,35.0,-100.00,North,7,5.0,8.0,20,0.00,,,0.00,793.000000,,2013-03-15 18:32:00,
2013-03-15 11:42:00,80.0,35.0,-100.00,North,7,5.0,8.0,20,0.00,,,0.00,793.000000,,2013-03-15 18:42:00,
2013-03-15 12:12:00,83.0,38.0,-100.00,NNW,340,6.0,9.0,20,0.00,,,0.00,650.000000,,2013-03-15 19:12:00,
2013-03-15 12:22:00,83.0,38.0,-100.00,NNW,340,6.0,9.0,20,0.00,,,0.00,650.000000,,2013-03-15 19:22:00,
2013-03-15 12:32:00,83.0,38.0,-100.00,NNW,340,6.0,9.0,20,0.00,,,0.00,650.000000,,2013-03-15 19:32:00,
2013-03-15 12:42:00,83.0,38.0,-100.00,NNW,340,6.0,9.0,20,0.00,,,0.00,650.000000,,2013-03-15 19:42:00,
2013-03-15 13:12:00,87.0,34.0,-100.00,NNE,16,6.0,9.0,15,0.00,,,-99.99,766.000000,,2013-03-15 20:12:00,
2013-03-15 13:22:00,87.0,34.0,-100.00,NNE,16,6.0,9.0,15,0.00,,,-99.99,766.000000,,2013-03-15 20:22:00,
2013-03-15 13:31:00,87.0,34.0,-100.00,NNE,16,6.0,9.0,15,0.00,,,-99.99,766.000000,,2013-03-15 20:31:00,
2013-03-15 13:42:00,87.0,34.0,-100.00,NNE,16,6.0,9.0,15,0.00,,,-99.99,766.000000,,2013-03-15 20:42:00,
2013-03-15 14:12:00,93.0,37.0,-100.00,NE,46,4.0,8.0,14,0.00,,,0.00,926.000000,,2013-03-15 21:12:00,
2013-03-15 14:22:00,93.0,37.0,-100.00,NE,46,4.0,8.0,14,0.00,,,0.00,926.000000,,2013-03-15 21:22:00,
2013-03-15 14:32:00,93.0,37.0,-100.00,NE,46,4.0,8.0,14,0.00,,,0.00,926.000000,,2013-03-15 21:32:00,
2013-03-15 14:42:00,93.0,37.0,-100.00,NE,46,4.0,8.0,14,0.00,,,0.00,926.000000,,2013-03-15 21:42:00,
2013-03-15 15:13:00,96.0,37.0,-100.00,SE,134,6.0,11.0,13,0.00,,,0.00,869.000000,,2013-03-15 22:13:00,
2013-03-15 15:22:00,96.0,37.0,-100.00,SE,134,6.0,11.0,13,0.00,,,0.00,869.000000,,2013-03-15 22:22:00,
2013-03-15 15:32:00,96.0,37.0,-100.00,SE,134,6.0,11.0,13,0.00,,,0.00,869.000000,,2013-03-15 22:32:00,
2013-03-15 15:42:00,96.0,37.0,-100.00,SE,134,6.0,11.0,13,0.00,,,0.00,869.000000,,2013-03-15 22:42:00,
2013-03-15 16:12:00,96.0,31.0,-100.00,SSE,150,7.0,14.0,10,0.00,,,0.00,599.000000,,2013-03-15 23:12:00,
2013-03-15 16:22:00,96.0,31.0,-100.00,SSE,150,7.0,14.0,10,0.00,,,0.00,599.000000,,2013-03-15 23:22:00,
2013-03-15 16:32:00,96.0,31.0,-100.00,SSE,150,7.0,14.0,10,0.00,,,0.00,599.000000,,2013-03-15 23:32:00,
2013-03-15 16:42:00,96.0,31.0,-100.00,SSE,150,7.0,14.0,10,0.00,,,0.00,599.000000,,2013-03-15 23:42:00,
2013-03-15 17:12:00,96.0,35.0,-100.00,SE,144,5.0,11.0,12,0.00,,,0.00,386.000000,,2013-03-16 00:12:00,
2013-03-15 17:22:00,96.0,35.0,-100.00,SE,144,5.0,11.0,12,0.00,,,0.00,386.000000,,2013-03-16 00:22:00,
2013-03-15 17:32:00,96.0,35.0,-100.00,SE,144,5.0,11.0,12,0.00,,,0.00,386.000000,,2013-03-16 00:32:00,
2013-03-15 17:42:00,96.0,35.0,-100.00,SE,144,5.0,11.0,12,0.00,,,0.00,386.000000,,2013-03-16 00:42:00,
2013-03-15 18:12:00,95.0,32.0,-100.00,SSW,200,5.0,10.0,11,0.00,,,0.00,337.000000,,2013-03-16 01:12:00,
2013-03-15 18:21:00,95.0,32.0,-100.00,SSW,200,5.0,10.0,11,0.00,,,0.00,337.000000,,2013-03-16 01:21:00,
2013-03-15 18:32:00,95.0,32.0,-100.00,SSW,200,5.0,10.0,11,0.00,,,0.00,337.000000,,2013-03-16 01:32:00,
2013-03-15 18:42:00,95.0,32.0,-100.00,SSW,200,5.0,10.0,11,0.00,,,0.00,337.000000,,2013-03-16 01:42:00,
2013-03-15 19:12:00,88.0,31.0,-100.00,South,189,4.0,8.0,13,0.00,,,0.00,69.000000,,2013-03-16 02:12:00,
2013-03-15 19:22:00,88.0,31.0,-100.00,South,189,4.0,8.0,13,0.00,,,0.00,69.000000,,2013-03-16 02:22:00,
2013-03-15 19:32:00,88.0,31.0,-100.00,South,189,4.0,8.0,13,0.00,,,0.00,69.000000,,2013-03-16 02:32:00,
2013-03-15 19:42:00,88.0,31.0,-100.00,South,189,4.0,8.0,13,0.00,,,0.00,69.000000,,2013-03-16 02:42:00,
2013-03-15 20:12:00,80.0,31.0,-100.00,SSE,167,4.0,6.0,17,0.00,,,0.00,1.000000,,2013-03-16 03:12:00,
2013-03-15 20:21:00,80.0,31.0,-100.00,SSE,167,4.0,6.0,17,0.00,,,0.00,1.000000,,2013-03-16 03:21:00,
2013-03-15 20:32:00,80.0,31.0,-100.00,SSE,167,4.0,6.0,17,0.00,,,0.00,1.000000,,2013-03-16 03:32:00,
2013-03-15 20:42:00,80.0,31.0,-100.00,SSE,167,4.0,6.0,17,0.00,,,0.00,1.000000,,2013-03-16 03:42:00,
2013-03-15 21:12:00,76.0,33.0,-100.00,SSE,147,4.0,6.0,21,0.00,,,0.00,0.000000,,2013-03-16 04:12:00,
2013-03-15 21:22:00,76.0,33.0,-100.00,SSE,147,4.0,6.0,21,0.00,,,0.00,0.000000,,2013-03-16 04:22:00,
2013-03-15 21:32:00,76.0,33.0,-100.00,SSE,147,4.0,6.0,21,0.00,,,0.00,0.000000,,2013-03-16 04:32:00,
2013-03-15 21:42:00,76.0,33.0,-100.00,SSE,147,4.0,6.0,21,0.00,,,0.00,0.000000,,2013-03-16 04:42:00,
2013-03-15 22:12:00,70.0,33.0,-100.00,SW,221,4.0,7.0,25,0.00,,,0.00,0.000000,,2013-03-16 05:12:00,
2013-03-15 22:21:00,70.0,33.0,-100.00,SW,221,4.0,7.0,25,0.00,,,0.00,0.000000,,2013-03-16 05:21:00,
2013-03-15 23:12:00,77.0,34.0,-100.00,South,175,8.0,12.0,21,0.00,,,0.00,0.000000,,2013-03-16 06:12:00,
2013-03-15 23:21:00,77.0,34.0,-100.00,South,175,8.0,12.0,21,0.00,,,0.00,0.000000,,2013-03-16 06:21:00,
2013-03-15 23:32:00,77.0,34.0,-100.00,South,175,8.0,12.0,21,0.00,,,0.00,0.000000,,2013-03-16 06:32:00,
2013-03-15 23:42:00,77.0,34.0,-100.00,South,175,8.0,12.0,21,0.00,,,0.00,0.000000,,2013-03-16 06:42:00,